sensor_id;sensor_type;location;lat;lon;timestamp;pressure;altitude;pressure_sealevel;temperature;humidity
76460;BME280;65299;46.084;18.762;2023-04-03T00:00:27;100454.00;;;6.59;60.12
76460;BME280;65299;46.084;18.762;2023-04-03T00:03:27;100454.34;;;6.63;60.13
76460;BME280;65299;46.084;18.762;2023-04-03T00:06:28;100451.38;;;6.59;59.86
76460;BME280;65299;46.084;18.762;2023-04-03T00:09:28;100456.41;;;6.61;59.83
76460;BME280;65299;46.084;18.762;2023-04-03T00:12:28;100436.41;;;6.77;59.45
76460;BME280;65299;46.084;18.762;2023-04-03T00:15:29;100445.63;;;6.62;60.03
76460;BME280;65299;46.084;18.762;2023-04-03T00:18:30;100435.16;;;6.79;59.44
76460;BME280;65299;46.084;18.762;2023-04-03T00:21:30;100449.72;;;6.70;59.74
76460;BME280;65299;46.084;18.762;2023-04-03T00:24:30;100447.53;;;6.79;59.69
76460;BME280;65299;46.084;18.762;2023-04-03T00:27:31;100458.13;;;6.67;59.62
76460;BME280;65299;46.084;18.762;2023-04-03T00:30:31;100454.25;;;6.98;59.36
76460;BME280;65299;46.084;18.762;2023-04-03T00:33:32;100466.19;;;6.89;59.28
76460;BME280;65299;46.084;18.762;2023-04-03T00:36:32;100455.81;;;7.10;58.77
76460;BME280;65299;46.084;18.762;2023-04-03T00:39:33;100457.41;;;7.11;58.96
76460;BME280;65299;46.084;18.762;2023-04-03T00:42:33;100469.22;;;7.09;58.57
76460;BME280;65299;46.084;18.762;2023-04-03T00:45:37;100465.06;;;7.13;58.75
76460;BME280;65299;46.084;18.762;2023-04-03T00:48:42;100463.28;;;7.02;58.85
76460;BME280;65299;46.084;18.762;2023-04-03T00:51:43;100467.44;;;7.26;58.59
76460;BME280;65299;46.084;18.762;2023-04-03T00:54:45;100464.63;;;7.16;58.73
76460;BME280;65299;46.084;18.762;2023-04-03T00:57:46;100474.16;;;7.05;59.04
76460;BME280;65299;46.084;18.762;2023-04-03T01:00:50;100478.75;;;7.10;59.32
76460;BME280;65299;46.084;18.762;2023-04-03T01:03:57;100482.78;;;7.01;60.35
76460;BME280;65299;46.084;18.762;2023-04-03T01:07:02;100487.69;;;7.09;60.21
76460;BME280;65299;46.084;18.762;2023-04-03T01:10:08;100495.31;;;6.94;61.37
76460;BME280;65299;46.084;18.762;2023-04-03T01:13:32;100495.69;;;6.86;62.12
76460;BME280;65299;46.084;18.762;2023-04-03T01:16:33;100490.66;;;6.72;63.49
76460;BME280;65299;46.084;18.762;2023-04-03T01:19:36;100495.50;;;6.52;64.65
76460;BME280;65299;46.084;18.762;2023-04-03T01:25:52;100496.56;;;6.51;65.88
76460;BME280;65299;46.084;18.762;2023-04-03T01:28:54;100490.22;;;6.76;64.85
76460;BME280;65299;46.084;18.762;2023-04-03T01:31:57;100496.75;;;6.50;66.14
76460;BME280;65299;46.084;18.762;2023-04-03T01:34:58;100497.69;;;6.55;65.71
76460;BME280;65299;46.084;18.762;2023-04-03T01:37:58;100505.03;;;6.30;66.25
76460;BME280;65299;46.084;18.762;2023-04-03T01:40:59;100500.56;;;6.31;66.40
76460;BME280;65299;46.084;18.762;2023-04-03T01:44:00;100502.28;;;6.25;66.55
76460;BME280;65299;46.084;18.762;2023-04-03T01:47:00;100500.56;;;6.42;66.08
76460;BME280;65299;46.084;18.762;2023-04-03T01:50:01;100503.78;;;6.44;65.89
76460;BME280;65299;46.084;18.762;2023-04-03T01:53:01;100505.13;;;6.58;65.14
76460;BME280;65299;46.084;18.762;2023-04-03T01:56:02;100507.31;;;6.61;64.60
76460;BME280;65299;46.084;18.762;2023-04-03T01:59:03;100510.16;;;6.60;64.28
76460;BME280;65299;46.084;18.762;2023-04-03T02:02:03;100516.59;;;6.52;64.74
76460;BME280;65299;46.084;18.762;2023-04-03T02:05:04;100517.50;;;6.69;63.29
76460;BME280;65299;46.084;18.762;2023-04-03T02:08:04;100515.00;;;6.51;63.53
76460;BME280;65299;46.084;18.762;2023-04-03T02:11:06;100513.16;;;6.52;63.29
76460;BME280;65299;46.084;18.762;2023-04-03T02:14:06;100519.78;;;6.78;62.77
76460;BME280;65299;46.084;18.762;2023-04-03T02:17:06;100514.84;;;6.81;62.23
76460;BME280;65299;46.084;18.762;2023-04-03T02:20:09;100521.22;;;6.45;63.25
76460;BME280;65299;46.084;18.762;2023-04-03T02:23:09;100520.03;;;6.41;62.66
76460;BME280;65299;46.084;18.762;2023-04-03T02:26:12;100522.22;;;6.33;62.70
76460;BME280;65299;46.084;18.762;2023-04-03T02:29:13;100517.84;;;6.50;62.75
76460;BME280;65299;46.084;18.762;2023-04-03T02:32:13;100521.44;;;6.55;62.36
76460;BME280;65299;46.084;18.762;2023-04-03T02:35:14;100527.59;;;6.61;62.48
76460;BME280;65299;46.084;18.762;2023-04-03T02:38:14;100524.28;;;6.42;62.47
76460;BME280;65299;46.084;18.762;2023-04-03T02:41:15;100526.91;;;6.65;62.00
76460;BME280;65299;46.084;18.762;2023-04-03T02:44:16;100526.34;;;6.63;61.99
76460;BME280;65299;46.084;18.762;2023-04-03T02:47:16;100526.22;;;6.35;62.50
76460;BME280;65299;46.084;18.762;2023-04-03T02:50:17;100528.66;;;6.37;62.83
76460;BME280;65299;46.084;18.762;2023-04-03T02:53:18;100522.34;;;6.49;62.78
76460;BME280;65299;46.084;18.762;2023-04-03T02:56:18;100525.44;;;6.46;62.81
76460;BME280;65299;46.084;18.762;2023-04-03T02:59:19;100528.63;;;6.48;63.03
76460;BME280;65299;46.084;18.762;2023-04-03T03:02:20;100526.94;;;6.31;63.54
76460;BME280;65299;46.084;18.762;2023-04-03T03:05:21;100535.63;;;6.43;63.25
76460;BME280;65299;46.084;18.762;2023-04-03T03:08:21;100523.00;;;6.33;63.73
76460;BME280;65299;46.084;18.762;2023-04-03T03:11:22;100535.06;;;6.52;63.44
76460;BME280;65299;46.084;18.762;2023-04-03T03:14:23;100537.56;;;6.24;64.18
76460;BME280;65299;46.084;18.762;2023-04-03T03:17:23;100528.63;;;6.02;65.12
76460;BME280;65299;46.084;18.762;2023-04-03T03:20:24;100525.50;;;6.05;65.24
76460;BME280;65299;46.084;18.762;2023-04-03T03:23:26;100541.31;;;6.05;65.36
76460;BME280;65299;46.084;18.762;2023-04-03T03:26:28;100535.16;;;6.11;65.21
76460;BME280;65299;46.084;18.762;2023-04-03T03:29:29;100533.69;;;6.27;65.17
76460;BME280;65299;46.084;18.762;2023-04-03T03:32:29;100540.97;;;5.90;66.46
76460;BME280;65299;46.084;18.762;2023-04-03T03:35:30;100539.56;;;5.88;67.03
76460;BME280;65299;46.084;18.762;2023-04-03T03:38:30;100544.19;;;6.04;66.62
76460;BME280;65299;46.084;18.762;2023-04-03T03:41:31;100539.91;;;5.91;67.08
76460;BME280;65299;46.084;18.762;2023-04-03T03:44:31;100552.44;;;5.66;67.71
76460;BME280;65299;46.084;18.762;2023-04-03T03:47:32;100555.28;;;5.64;67.83
76460;BME280;65299;46.084;18.762;2023-04-03T03:50:32;100556.41;;;5.57;68.56
76460;BME280;65299;46.084;18.762;2023-04-03T03:53:33;100548.19;;;5.65;68.54
76460;BME280;65299;46.084;18.762;2023-04-03T03:56:34;100555.22;;;5.53;68.96
76460;BME280;65299;46.084;18.762;2023-04-03T03:59:34;100553.56;;;5.88;67.82
76460;BME280;65299;46.084;18.762;2023-04-03T04:02:34;100551.88;;;5.75;67.45
76460;BME280;65299;46.084;18.762;2023-04-03T04:05:35;100548.72;;;5.55;67.87
76460;BME280;65299;46.084;18.762;2023-04-03T04:08:35;100551.53;;;5.72;67.49
76460;BME280;65299;46.084;18.762;2023-04-03T04:11:36;100554.03;;;5.37;68.84
76460;BME280;65299;46.084;18.762;2023-04-03T04:14:36;100552.78;;;5.69;67.96
76460;BME280;65299;46.084;18.762;2023-04-03T04:17:37;100561.81;;;5.62;67.96
76460;BME280;65299;46.084;18.762;2023-04-03T04:20:37;100560.91;;;5.68;68.45
76460;BME280;65299;46.084;18.762;2023-04-03T04:23:37;100582.41;;;5.35;69.01
76460;BME280;65299;46.084;18.762;2023-04-03T04:26:38;100582.19;;;5.66;67.90
76460;BME280;65299;46.084;18.762;2023-04-03T04:29:38;100578.41;;;5.44;68.18
76460;BME280;65299;46.084;18.762;2023-04-03T04:32:39;100593.81;;;5.59;67.84
76460;BME280;65299;46.084;18.762;2023-04-03T04:35:42;100597.03;;;5.61;67.87
76460;BME280;65299;46.084;18.762;2023-04-03T04:38:42;100605.38;;;5.58;67.80
76460;BME280;65299;46.084;18.762;2023-04-03T04:41:43;100606.09;;;5.65;67.93
76460;BME280;65299;46.084;18.762;2023-04-03T04:44:43;100598.78;;;5.67;68.54
76460;BME280;65299;46.084;18.762;2023-04-03T04:47:44;100604.34;;;5.59;69.21
76460;BME280;65299;46.084;18.762;2023-04-03T04:50:44;100602.72;;;5.58;69.91
76460;BME280;65299;46.084;18.762;2023-04-03T04:53:45;100597.03;;;5.61;70.55
76460;BME280;65299;46.084;18.762;2023-04-03T04:56:45;100603.19;;;5.55;71.78
76460;BME280;65299;46.084;18.762;2023-04-03T04:59:46;100595.25;;;5.43;72.16
76460;BME280;65299;46.084;18.762;2023-04-03T05:02:46;100603.88;;;5.32;72.17
76460;BME280;65299;46.084;18.762;2023-04-03T05:05:47;100607.09;;;5.34;71.89
76460;BME280;65299;46.084;18.762;2023-04-03T05:08:47;100609.13;;;5.32;71.91
76460;BME280;65299;46.084;18.762;2023-04-03T05:11:48;100614.03;;;5.47;70.97
76460;BME280;65299;46.084;18.762;2023-04-03T05:14:48;100611.25;;;5.42;70.39
76460;BME280;65299;46.084;18.762;2023-04-03T05:17:48;100621.41;;;5.56;70.60
76460;BME280;65299;46.084;18.762;2023-04-03T05:20:49;100614.09;;;5.40;70.20
76460;BME280;65299;46.084;18.762;2023-04-03T05:23:50;100616.94;;;5.57;69.34
76460;BME280;65299;46.084;18.762;2023-04-03T05:26:51;100619.88;;;5.49;68.98
76460;BME280;65299;46.084;18.762;2023-04-03T05:29:52;100616.78;;;5.70;68.90
76460;BME280;65299;46.084;18.762;2023-04-03T05:32:53;100627.22;;;5.76;68.46
76460;BME280;65299;46.084;18.762;2023-04-03T05:35:54;100620.75;;;5.91;68.06
76460;BME280;65299;46.084;18.762;2023-04-03T05:38:54;100626.84;;;5.73;67.99
76460;BME280;65299;46.084;18.762;2023-04-03T05:41:56;100641.31;;;6.00;67.24
76460;BME280;65299;46.084;18.762;2023-04-03T05:44:56;100640.59;;;5.93;68.12
76460;BME280;65299;46.084;18.762;2023-04-03T05:47:57;100651.66;;;5.83;67.98
76460;BME280;65299;46.084;18.762;2023-04-03T05:50:58;100652.50;;;5.96;68.16
76460;BME280;65299;46.084;18.762;2023-04-03T05:54:05;100639.19;;;5.91;68.27
76460;BME280;65299;46.084;18.762;2023-04-03T05:57:07;100647.59;;;5.81;67.79
76460;BME280;65299;46.084;18.762;2023-04-03T06:00:10;100654.13;;;5.78;68.61
76460;BME280;65299;46.084;18.762;2023-04-03T06:03:12;100654.31;;;5.65;68.71
76460;BME280;65299;46.084;18.762;2023-04-03T06:06:13;100648.38;;;5.70;68.72
76460;BME280;65299;46.084;18.762;2023-04-03T06:09:15;100651.47;;;5.78;68.41
76460;BME280;65299;46.084;18.762;2023-04-03T06:12:17;100660.66;;;5.76;69.12
76460;BME280;65299;46.084;18.762;2023-04-03T06:15:17;100655.31;;;5.64;69.65
76460;BME280;65299;46.084;18.762;2023-04-03T06:18:18;100659.50;;;5.90;68.96
76460;BME280;65299;46.084;18.762;2023-04-03T06:21:18;100657.88;;;5.89;69.16
76460;BME280;65299;46.084;18.762;2023-04-03T06:24:19;100659.84;;;5.75;69.64
76460;BME280;65299;46.084;18.762;2023-04-03T06:27:22;100661.84;;;6.10;67.62
76460;BME280;65299;46.084;18.762;2023-04-03T06:30:22;100657.81;;;6.07;67.64
76460;BME280;65299;46.084;18.762;2023-04-03T06:33:22;100663.41;;;6.29;66.69
76460;BME280;65299;46.084;18.762;2023-04-03T06:36:23;100661.28;;;6.19;66.15
76460;BME280;65299;46.084;18.762;2023-04-03T06:39:24;100654.34;;;6.36;65.71
76460;BME280;65299;46.084;18.762;2023-04-03T06:42:25;100648.53;;;6.46;65.35
76460;BME280;65299;46.084;18.762;2023-04-03T06:45:26;100666.13;;;6.22;65.92
76460;BME280;65299;46.084;18.762;2023-04-03T06:48:27;100654.84;;;6.56;65.42
76460;BME280;65299;46.084;18.762;2023-04-03T06:51:28;100658.56;;;6.26;66.13
76460;BME280;65299;46.084;18.762;2023-04-03T06:54:29;100644.72;;;6.30;66.60
76460;BME280;65299;46.084;18.762;2023-04-03T06:57:30;100662.09;;;6.20;67.50
76460;BME280;65299;46.084;18.762;2023-04-03T07:00:30;100654.50;;;6.00;67.44
76460;BME280;65299;46.084;18.762;2023-04-03T07:03:31;100654.66;;;5.87;67.88
76460;BME280;65299;46.084;18.762;2023-04-03T07:06:32;100650.09;;;6.24;66.50
76460;BME280;65299;46.084;18.762;2023-04-03T07:09:33;100668.75;;;6.22;67.47
76460;BME280;65299;46.084;18.762;2023-04-03T07:12:34;100678.97;;;6.19;67.89
76460;BME280;65299;46.084;18.762;2023-04-03T07:15:34;100680.97;;;6.58;65.94
76460;BME280;65299;46.084;18.762;2023-04-03T07:18:36;100674.31;;;6.44;65.58
76460;BME280;65299;46.084;18.762;2023-04-03T07:21:36;100684.50;;;6.40;64.76
76460;BME280;65299;46.084;18.762;2023-04-03T07:24:37;100675.72;;;6.58;65.11
76460;BME280;65299;46.084;18.762;2023-04-03T07:27:38;100684.47;;;6.82;64.10
76460;BME280;65299;46.084;18.762;2023-04-03T07:30:45;100689.06;;;6.98;63.01
76460;BME280;65299;46.084;18.762;2023-04-03T07:33:46;100702.13;;;6.93;62.83
76460;BME280;65299;46.084;18.762;2023-04-03T07:36:47;100699.63;;;7.09;63.60
76460;BME280;65299;46.084;18.762;2023-04-03T07:39:47;100709.69;;;7.47;62.03
76460;BME280;65299;46.084;18.762;2023-04-03T07:42:48;100695.13;;;7.44;61.01
76460;BME280;65299;46.084;18.762;2023-04-03T07:45:49;100699.44;;;7.74;60.80
76460;BME280;65299;46.084;18.762;2023-04-03T07:48:50;100709.41;;;7.72;60.60
76460;BME280;65299;46.084;18.762;2023-04-03T07:51:51;100706.59;;;7.50;59.74
76460;BME280;65299;46.084;18.762;2023-04-03T07:54:53;100707.41;;;7.39;60.14
76460;BME280;65299;46.084;18.762;2023-04-03T07:57:53;100721.41;;;7.51;59.56
76460;BME280;65299;46.084;18.762;2023-04-03T08:00:53;100706.69;;;7.95;58.84
76460;BME280;65299;46.084;18.762;2023-04-03T08:03:54;100714.47;;;7.73;58.72
76460;BME280;65299;46.084;18.762;2023-04-03T08:06:54;100715.03;;;7.75;59.57
76460;BME280;65299;46.084;18.762;2023-04-03T08:09:55;100727.91;;;8.11;58.27
76460;BME280;65299;46.084;18.762;2023-04-03T08:12:56;100729.50;;;8.12;58.42
76460;BME280;65299;46.084;18.762;2023-04-03T08:15:56;100732.19;;;8.01;57.97
76460;BME280;65299;46.084;18.762;2023-04-03T08:18:57;100750.03;;;7.82;58.24
76460;BME280;65299;46.084;18.762;2023-04-03T08:21:58;100744.41;;;8.30;57.31
76460;BME280;65299;46.084;18.762;2023-04-03T08:24:59;100735.72;;;8.06;57.42
76460;BME280;65299;46.084;18.762;2023-04-03T08:28:00;100731.53;;;8.95;55.47
76460;BME280;65299;46.084;18.762;2023-04-03T08:31:11;100743.84;;;8.56;55.17
76460;BME280;65299;46.084;18.762;2023-04-03T08:34:12;100726.31;;;8.83;54.83
76460;BME280;65299;46.084;18.762;2023-04-03T08:37:13;100741.97;;;8.40;56.08
76460;BME280;65299;46.084;18.762;2023-04-03T08:40:15;100739.63;;;8.15;55.75
76460;BME280;65299;46.084;18.762;2023-04-03T08:46:56;100741.91;;;8.52;55.32
76460;BME280;65299;46.084;18.762;2023-04-03T08:50:04;100727.41;;;8.54;53.99
76460;BME280;65299;46.084;18.762;2023-04-03T08:53:12;100724.59;;;8.61;54.16
76460;BME280;65299;46.084;18.762;2023-04-03T08:56:15;100722.06;;;8.99;53.44
76460;BME280;65299;46.084;18.762;2023-04-03T08:59:26;100714.34;;;9.14;53.43
76460;BME280;65299;46.084;18.762;2023-04-03T09:06:15;100714.41;;;8.86;53.17
76460;BME280;65299;46.084;18.762;2023-04-03T09:12:27;100718.44;;;9.22;53.20
76460;BME280;65299;46.084;18.762;2023-04-03T09:15:30;100710.16;;;9.18;53.13
76460;BME280;65299;46.084;18.762;2023-04-03T09:18:37;100714.66;;;9.56;51.68
76460;BME280;65299;46.084;18.762;2023-04-03T09:21:42;100718.84;;;9.13;52.32
76460;BME280;65299;46.084;18.762;2023-04-03T09:24:49;100723.97;;;9.20;52.88
76460;BME280;65299;46.084;18.762;2023-04-03T09:27:52;100709.91;;;9.36;53.14
76460;BME280;65299;46.084;18.762;2023-04-03T09:30:52;100710.16;;;9.18;52.74
76460;BME280;65299;46.084;18.762;2023-04-03T09:33:58;100706.56;;;9.67;51.93
76460;BME280;65299;46.084;18.762;2023-04-03T09:37:01;100714.44;;;9.79;50.37
76460;BME280;65299;46.084;18.762;2023-04-03T09:40:33;100728.41;;;9.74;51.48
76460;BME280;65299;46.084;18.762;2023-04-03T09:43:38;100704.69;;;9.84;51.11
76460;BME280;65299;46.084;18.762;2023-04-03T09:46:39;100706.63;;;9.94;51.60
76460;BME280;65299;46.084;18.762;2023-04-03T09:49:39;100709.78;;;9.69;51.08
76460;BME280;65299;46.084;18.762;2023-04-03T09:52:42;100704.75;;;10.38;49.07
76460;BME280;65299;46.084;18.762;2023-04-03T09:55:44;100718.22;;;10.31;49.61
76460;BME280;65299;46.084;18.762;2023-04-03T09:58:48;100702.91;;;10.12;49.38
76460;BME280;65299;46.084;18.762;2023-04-03T10:02:04;100692.16;;;10.55;47.88
76460;BME280;65299;46.084;18.762;2023-04-03T10:05:35;100686.78;;;9.96;49.38
76460;BME280;65299;46.084;18.762;2023-04-03T10:08:36;100695.63;;;10.29;49.73
76460;BME280;65299;46.084;18.762;2023-04-03T10:11:36;100696.25;;;10.36;50.55
76460;BME280;65299;46.084;18.762;2023-04-03T10:14:39;100672.72;;;10.18;49.86
76460;BME280;65299;46.084;18.762;2023-04-03T10:20:51;100674.28;;;10.40;49.43
76460;BME280;65299;46.084;18.762;2023-04-03T10:24:27;100674.91;;;10.52;49.10
76460;BME280;65299;46.084;18.762;2023-04-03T10:34:20;100673.00;;;11.26;48.55
76460;BME280;65299;46.084;18.762;2023-04-03T10:37:29;100668.88;;;10.62;48.58
76460;BME280;65299;46.084;18.762;2023-04-03T10:50:34;100662.38;;;11.21;46.04
76460;BME280;65299;46.084;18.762;2023-04-03T10:53:55;100665.47;;;11.03;47.10
76460;BME280;65299;46.084;18.762;2023-04-03T10:57:01;100669.41;;;11.52;45.97
76460;BME280;65299;46.084;18.762;2023-04-03T11:00:07;100674.97;;;11.41;45.62
76460;BME280;65299;46.084;18.762;2023-04-03T11:06:32;100655.19;;;11.74;45.40
76460;BME280;65299;46.084;18.762;2023-04-03T11:09:40;100652.94;;;11.50;44.70
76460;BME280;65299;46.084;18.762;2023-04-03T11:12:52;100661.41;;;10.96;45.64
76460;BME280;65299;46.084;18.762;2023-04-03T11:15:57;100664.50;;;11.24;45.27
76460;BME280;65299;46.084;18.762;2023-04-03T11:19:03;100652.19;;;11.60;44.63
76460;BME280;65299;46.084;18.762;2023-04-03T11:28:13;100639.03;;;11.28;44.23
76460;BME280;65299;46.084;18.762;2023-04-03T11:34:47;100639.81;;;11.29;44.61
76460;BME280;65299;46.084;18.762;2023-04-03T11:37:53;100637.13;;;11.19;45.36
76460;BME280;65299;46.084;18.762;2023-04-03T11:40:55;100635.16;;;10.99;45.88
76460;BME280;65299;46.084;18.762;2023-04-03T11:44:02;100638.19;;;11.18;45.32
76460;BME280;65299;46.084;18.762;2023-04-03T11:47:05;100631.47;;;11.05;45.73
76460;BME280;65299;46.084;18.762;2023-04-03T11:50:06;100631.25;;;11.17;45.25
76460;BME280;65299;46.084;18.762;2023-04-03T11:59:26;100622.38;;;11.53;44.98
76460;BME280;65299;46.084;18.762;2023-04-03T12:02:36;100609.56;;;11.30;44.52
76460;BME280;65299;46.084;18.762;2023-04-03T12:05:37;100608.56;;;10.94;47.29
76460;BME280;65299;46.084;18.762;2023-04-03T12:11:41;100624.97;;;10.81;46.32
76460;BME280;65299;46.084;18.762;2023-04-03T12:14:41;100605.59;;;10.49;47.67
76460;BME280;65299;46.084;18.762;2023-04-03T12:17:43;100601.28;;;11.26;46.59
76460;BME280;65299;46.084;18.762;2023-04-03T12:27:21;100602.97;;;11.52;44.40
76460;BME280;65299;46.084;18.762;2023-04-03T12:30:26;100605.50;;;11.22;44.06
76460;BME280;65299;46.084;18.762;2023-04-03T12:34:00;100598.72;;;11.51;44.21
76460;BME280;65299;46.084;18.762;2023-04-03T12:40:26;100604.00;;;11.46;44.70
76460;BME280;65299;46.084;18.762;2023-04-03T12:46:51;100612.19;;;11.25;43.82
76460;BME280;65299;46.084;18.762;2023-04-03T12:49:53;100614.91;;;11.40;43.53
76460;BME280;65299;46.084;18.762;2023-04-03T12:53:04;100607.13;;;10.76;45.49
76460;BME280;65299;46.084;18.762;2023-04-03T12:56:25;100608.06;;;10.97;44.46
76460;BME280;65299;46.084;18.762;2023-04-03T12:59:26;100598.34;;;11.23;44.69
76460;BME280;65299;46.084;18.762;2023-04-03T13:02:32;100590.56;;;11.06;45.03
76460;BME280;65299;46.084;18.762;2023-04-03T13:05:34;100588.13;;;11.00;45.86
76460;BME280;65299;46.084;18.762;2023-04-03T13:08:35;100584.72;;;11.04;45.08
76460;BME280;65299;46.084;18.762;2023-04-03T13:11:40;100578.94;;;11.22;44.75
76460;BME280;65299;46.084;18.762;2023-04-03T13:14:52;100572.69;;;11.53;44.71
76460;BME280;65299;46.084;18.762;2023-04-03T13:17:54;100570.78;;;10.82;44.35
76460;BME280;65299;46.084;18.762;2023-04-03T13:24:06;100567.75;;;11.10;44.78
76460;BME280;65299;46.084;18.762;2023-04-03T13:27:10;100575.69;;;11.77;43.80
76460;BME280;65299;46.084;18.762;2023-04-03T13:30:25;100563.59;;;11.34;44.93
76460;BME280;65299;46.084;18.762;2023-04-03T13:33:29;100553.72;;;11.20;43.65
76460;BME280;65299;46.084;18.762;2023-04-03T13:36:36;100553.00;;;11.49;44.54
76460;BME280;65299;46.084;18.762;2023-04-03T13:39:38;100563.81;;;11.18;45.02
76460;BME280;65299;46.084;18.762;2023-04-03T13:42:40;100554.00;;;11.28;45.17
76460;BME280;65299;46.084;18.762;2023-04-03T13:49:29;100561.53;;;11.51;45.42
76460;BME280;65299;46.084;18.762;2023-04-03T13:52:33;100561.22;;;11.38;44.47
76460;BME280;65299;46.084;18.762;2023-04-03T14:05:03;100539.53;;;10.94;45.58
76460;BME280;65299;46.084;18.762;2023-04-03T14:08:05;100545.91;;;10.98;45.69
76460;BME280;65299;46.084;18.762;2023-04-03T14:11:16;100539.66;;;11.29;45.71
76460;BME280;65299;46.084;18.762;2023-04-03T14:14:21;100539.44;;;11.41;45.40
76460;BME280;65299;46.084;18.762;2023-04-03T14:17:24;100532.94;;;11.12;46.09
76460;BME280;65299;46.084;18.762;2023-04-03T14:20:26;100533.75;;;11.07;46.28
76460;BME280;65299;46.084;18.762;2023-04-03T14:23:27;100533.13;;;10.85;46.98
76460;BME280;65299;46.084;18.762;2023-04-03T14:26:28;100533.94;;;10.49;47.04
76460;BME280;65299;46.084;18.762;2023-04-03T14:29:30;100533.63;;;10.82;46.32
76460;BME280;65299;46.084;18.762;2023-04-03T14:32:30;100536.84;;;10.42;46.41
76460;BME280;65299;46.084;18.762;2023-04-03T14:35:31;100539.81;;;10.51;45.77
76460;BME280;65299;46.084;18.762;2023-04-03T14:38:31;100548.00;;;10.44;45.81
76460;BME280;65299;46.084;18.762;2023-04-03T14:41:32;100543.88;;;10.27;45.86
76460;BME280;65299;46.084;18.762;2023-04-03T14:44:33;100543.09;;;10.68;45.49
76460;BME280;65299;46.084;18.762;2023-04-03T14:47:44;100549.66;;;10.55;44.93
76460;BME280;65299;46.084;18.762;2023-04-03T14:50:46;100547.59;;;10.67;45.01
76460;BME280;65299;46.084;18.762;2023-04-03T14:53:47;100547.53;;;10.57;44.87
76460;BME280;65299;46.084;18.762;2023-04-03T14:56:49;100545.72;;;10.63;44.13
76460;BME280;65299;46.084;18.762;2023-04-03T14:59:49;100539.66;;;10.31;44.35
76460;BME280;65299;46.084;18.762;2023-04-03T15:02:50;100542.19;;;10.47;44.29
76460;BME280;65299;46.084;18.762;2023-04-03T15:05:51;100543.47;;;10.45;44.13
76460;BME280;65299;46.084;18.762;2023-04-03T15:08:51;100543.47;;;10.45;44.46
76460;BME280;65299;46.084;18.762;2023-04-03T15:11:53;100529.78;;;10.21;44.42
76460;BME280;65299;46.084;18.762;2023-04-03T15:14:53;100529.03;;;10.26;44.07
76460;BME280;65299;46.084;18.762;2023-04-03T15:17:55;100531.94;;;10.24;43.87
76460;BME280;65299;46.084;18.762;2023-04-03T15:20:57;100538.91;;;10.35;43.97
76460;BME280;65299;46.084;18.762;2023-04-03T15:23:58;100548.63;;;10.20;44.43
76460;BME280;65299;46.084;18.762;2023-04-03T15:26:59;100538.09;;;10.30;44.95
76460;BME280;65299;46.084;18.762;2023-04-03T15:30:01;100535.09;;;10.21;44.61
76460;BME280;65299;46.084;18.762;2023-04-03T15:33:01;100528.22;;;9.93;45.20
76460;BME280;65299;46.084;18.762;2023-04-03T15:36:03;100521.75;;;10.11;44.09
76460;BME280;65299;46.084;18.762;2023-04-03T15:39:03;100521.03;;;10.21;44.65
76460;BME280;65299;46.084;18.762;2023-04-03T15:42:04;100522.94;;;9.93;44.14
76460;BME280;65299;46.084;18.762;2023-04-03T15:45:07;100517.63;;;9.93;44.68
76460;BME280;65299;46.084;18.762;2023-04-03T15:48:08;100524.63;;;10.36;44.31
76460;BME280;65299;46.084;18.762;2023-04-03T15:51:08;100523.13;;;10.19;44.08
76460;BME280;65299;46.084;18.762;2023-04-03T15:54:09;100530.81;;;9.88;44.40
76460;BME280;65299;46.084;18.762;2023-04-03T15:57:09;100529.38;;;9.76;44.49
76460;BME280;65299;46.084;18.762;2023-04-03T16:00:10;100526.81;;;9.86;43.37
76460;BME280;65299;46.084;18.762;2023-04-03T16:03:16;100536.38;;;9.60;43.94
76460;BME280;65299;46.084;18.762;2023-04-03T16:06:18;100527.38;;;9.61;44.85
76460;BME280;65299;46.084;18.762;2023-04-03T16:09:19;100537.38;;;9.81;43.78
76460;BME280;65299;46.084;18.762;2023-04-03T16:12:19;100540.16;;;9.43;44.98
76460;BME280;65299;46.084;18.762;2023-04-03T16:15:20;100555.78;;;9.66;44.23
76460;BME280;65299;46.084;18.762;2023-04-03T16:18:20;100566.97;;;9.46;44.36
76460;BME280;65299;46.084;18.762;2023-04-03T16:21:21;100579.34;;;9.19;44.60
76460;BME280;65299;46.084;18.762;2023-04-03T16:24:22;100597.34;;;9.60;43.87
76460;BME280;65299;46.084;18.762;2023-04-03T16:27:23;100602.84;;;9.80;43.62
76460;BME280;65299;46.084;18.762;2023-04-03T16:30:28;100605.97;;;9.51;44.05
76460;BME280;65299;46.084;18.762;2023-04-03T16:33:29;100606.63;;;9.41;44.36
76460;BME280;65299;46.084;18.762;2023-04-03T16:36:30;100606.97;;;9.45;44.67
76460;BME280;65299;46.084;18.762;2023-04-03T16:39:30;100613.00;;;9.40;43.82
76460;BME280;65299;46.084;18.762;2023-04-03T16:42:31;100610.53;;;9.12;44.52
76460;BME280;65299;46.084;18.762;2023-04-03T16:45:31;100620.63;;;9.37;44.58
76460;BME280;65299;46.084;18.762;2023-04-03T16:48:32;100625.19;;;9.19;43.74
76460;BME280;65299;46.084;18.762;2023-04-03T16:51:32;100625.50;;;8.85;45.00
76460;BME280;65299;46.084;18.762;2023-04-03T16:54:33;100619.22;;;8.91;44.33
76460;BME280;65299;46.084;18.762;2023-04-03T16:57:33;100633.03;;;8.76;44.04
76460;BME280;65299;46.084;18.762;2023-04-03T17:00:33;100617.13;;;8.93;43.89
76460;BME280;65299;46.084;18.762;2023-04-03T17:03:34;100626.78;;;8.82;44.19
76460;BME280;65299;46.084;18.762;2023-04-03T17:06:34;100616.75;;;8.68;43.92
76460;BME280;65299;46.084;18.762;2023-04-03T17:09:35;100612.59;;;8.55;44.52
76460;BME280;65299;46.084;18.762;2023-04-03T17:12:35;100629.25;;;8.22;45.16
76460;BME280;65299;46.084;18.762;2023-04-03T17:15:36;100625.91;;;8.44;44.29